Terminal Aerodrome Forecast
Issued by NWS Duluth, MN

Home | Current Version | Previous Version | Text Only | Print | Product List | Glossary On
Versions: 1 2 3 4 5 6 7 8 9 10 11 12 13 14 15 16 17 18 19 20 21 22 23 24 25 26 27 28
000
FTUS43 KDLH 012300
TAFINL
TAF
KINL 012338Z 0200/0224 28002KT P6SM SKC
     FM020500 22002KT 6SM BR SCT015
     FM021200 22006KT P6SM BKN070
     FM021700 23006KT 4SM -SHSN BKN025=

USA.gov is the U.S. government's official web portal to all federal, state and local government web resources and services.